createdAt,value
2023-01-13T00:00:15.779Z,3.10
2023-01-13T00:02:42.683Z,3.50
2023-01-13T00:05:10.318Z,2.80
2023-01-13T00:07:40.088Z,3.10
2023-01-13T00:10:10.890Z,2.70
2023-01-13T00:12:41.504Z,2.90
2023-01-13T00:15:09.198Z,2.97
2023-01-13T00:17:36.166Z,3.10
2023-01-13T00:20:03.172Z,2.50
2023-01-13T00:22:32.398Z,2.65
2023-01-13T00:25:01.475Z,2.70
2023-01-13T00:27:29.101Z,2.38
2023-01-13T00:29:55.893Z,2.42
2023-01-13T00:32:23.125Z,2.42
2023-01-13T00:34:49.903Z,2.65
2023-01-13T00:37:16.980Z,2.30
2023-01-13T00:39:44.085Z,2.10
2023-01-13T00:42:29.723Z,1.85
2023-01-13T00:44:56.678Z,2.35
2023-01-13T00:47:23.463Z,2.05
2023-01-13T00:49:50.322Z,1.70
2023-01-13T00:52:17.123Z,1.98
2023-01-13T00:54:44.046Z,1.85
2023-01-13T00:57:11.038Z,2.08
2023-01-13T00:59:37.879Z,2.05
2023-01-13T01:02:04.816Z,2.22
2023-01-13T01:04:31.778Z,1.80
2023-01-13T01:06:58.589Z,1.95
2023-01-13T01:09:32.545Z,1.98
2023-01-13T01:12:00.150Z,1.98
2023-01-13T01:14:27.300Z,1.80
2023-01-13T01:16:54.653Z,2.20
2023-01-13T01:19:21.511Z,1.92
2023-01-13T01:21:48.412Z,1.92
2023-01-13T01:24:16.765Z,1.90
2023-01-13T01:26:43.951Z,1.70
2023-01-13T01:29:14.588Z,2.28
2023-01-13T01:31:41.634Z,2.30
2023-01-13T01:34:08.525Z,2.35
2023-01-13T01:36:36.522Z,1.92
2023-01-13T01:39:04.511Z,2.30
2023-01-13T01:41:32.806Z,2.50
2023-01-13T01:44:19.250Z,2.17
2023-01-13T01:46:46.154Z,2.80
2023-01-13T01:49:14.318Z,2.28
2023-01-13T01:51:53.885Z,2.30
2023-01-13T01:54:23.793Z,2.15
2023-01-13T01:56:50.657Z,2.40
2023-01-13T01:59:17.450Z,3.60
2023-01-13T02:01:44.372Z,2.22
2023-01-13T02:04:20.769Z,2.90
2023-01-13T02:06:47.744Z,2.65
2023-01-13T02:09:14.587Z,2.42
2023-01-13T02:12:00.143Z,3.13
2023-01-13T02:14:28.292Z,2.50
2023-01-13T02:17:01.010Z,2.75
2023-01-13T02:19:46.396Z,2.53
2023-01-13T02:22:33.974Z,2.65
2023-01-13T02:25:20.277Z,2.65
2023-01-13T02:28:24.918Z,2.05
2023-01-13T02:31:12.763Z,2.38
2023-01-13T02:33:50.487Z,2.85
2023-01-13T02:36:38.524Z,2.92
2023-01-13T02:39:19.509Z,2.35
2023-01-13T02:42:24.129Z,2.28
2023-01-13T02:45:00.581Z,2.33
2023-01-13T02:47:27.900Z,2.15
2023-01-13T02:50:05.720Z,2.60
2023-01-13T02:52:34.399Z,2.55
2023-01-13T02:55:05.465Z,2.20
2023-01-13T02:57:32.619Z,2.60
2023-01-13T02:59:59.562Z,2.60
2023-01-13T03:02:26.585Z,3.00
2023-01-13T03:04:55.447Z,2.47
2023-01-13T03:07:46.119Z,2.70
2023-01-13T03:10:50.051Z,2.50
2023-01-13T03:13:50.502Z,3.00
2023-01-13T03:16:49.058Z,2.40
2023-01-13T03:19:24.813Z,3.05
2023-01-13T03:22:33.095Z,2.58
2023-01-13T03:25:05.966Z,2.67
2023-01-13T03:27:37.702Z,2.40
2023-01-13T03:30:16.920Z,3.30
2023-01-13T03:32:52.272Z,2.35
2023-01-13T03:35:30.830Z,2.97
2023-01-13T03:38:05.424Z,2.45
2023-01-13T03:40:34.929Z,2.72
2023-01-13T03:43:22.981Z,3.25
2023-01-13T03:45:53.155Z,2.53
2023-01-13T03:48:20.088Z,2.42
2023-01-13T03:50:57.555Z,2.75
2023-01-13T03:53:30.120Z,2.45
2023-01-13T03:56:01.231Z,2.35
2023-01-13T03:58:30.886Z,2.63
2023-01-13T04:00:58.866Z,2.40
2023-01-13T04:03:33.862Z,3.08
2023-01-13T04:06:18.511Z,2.97
2023-01-13T04:08:51.265Z,2.53
2023-01-13T04:11:19.995Z,2.65
2023-01-13T04:13:46.833Z,3.25
2023-01-13T04:16:13.757Z,2.78
2023-01-13T04:18:40.800Z,2.80
2023-01-13T04:21:07.858Z,3.58
2023-01-13T04:23:34.684Z,2.53
2023-01-13T04:26:01.527Z,2.78
2023-01-13T04:28:28.371Z,3.17
2023-01-13T04:30:55.282Z,2.97
2023-01-13T04:33:22.174Z,2.72
2023-01-13T04:35:49.074Z,2.80
2023-01-13T04:38:17.571Z,2.80
2023-01-13T04:40:44.545Z,2.80
2023-01-13T04:43:11.478Z,3.22
2023-01-13T04:45:38.461Z,3.00
2023-01-13T04:48:05.528Z,2.80
2023-01-13T04:50:32.451Z,2.63
2023-01-13T04:53:01.145Z,2.33
2023-01-13T04:55:28.116Z,2.67
2023-01-13T04:57:54.924Z,2.88
2023-01-13T05:00:22.839Z,2.35
2023-01-13T05:02:51.025Z,2.53
2023-01-13T05:05:18.052Z,2.83
2023-01-13T05:07:45.106Z,2.80
2023-01-13T05:10:12.220Z,2.42
2023-01-13T05:12:57.835Z,2.65
2023-01-13T05:15:43.260Z,2.50
2023-01-13T05:18:10.311Z,2.72
2023-01-13T05:20:37.248Z,2.92
2023-01-13T05:23:22.910Z,2.80
2023-01-13T05:25:49.889Z,2.83
2023-01-13T05:28:16.930Z,2.40
2023-01-13T05:30:46.070Z,2.70
2023-01-13T05:33:14.245Z,2.55
2023-01-13T05:35:41.924Z,2.85
2023-01-13T05:38:08.765Z,2.33
2023-01-13T05:40:54.150Z,2.50
2023-01-13T05:43:21.885Z,2.78
2023-01-13T05:45:51.719Z,2.83
2023-01-13T05:48:19.498Z,2.45
2023-01-13T05:50:46.645Z,2.30
2023-01-13T05:53:13.729Z,2.70
2023-01-13T05:55:43.919Z,2.50
2023-01-13T05:58:11.747Z,2.30
2023-01-13T06:00:40.362Z,2.47
2023-01-13T06:03:08.705Z,2.15
2023-01-13T06:05:36.129Z,2.97
2023-01-13T06:08:03.943Z,2.53
2023-01-13T06:10:30.829Z,2.38
2023-01-13T06:12:57.932Z,2.60
2023-01-13T06:15:24.938Z,2.88
2023-01-13T06:17:51.811Z,2.50
2023-01-13T06:20:18.780Z,2.47
2023-01-13T06:22:50.016Z,2.60
2023-01-13T06:25:36.776Z,2.47
2023-01-13T06:28:03.671Z,2.60
2023-01-13T06:30:34.174Z,2.60
2023-01-13T06:33:01.749Z,2.33
2023-01-13T06:35:31.254Z,2.72
2023-01-13T06:37:58.896Z,2.70
2023-01-13T06:40:25.796Z,2.90
2023-01-13T06:43:12.481Z,2.60
2023-01-13T06:45:47.169Z,2.50
2023-01-13T06:48:14.301Z,2.78
2023-01-13T06:50:42.236Z,2.70
2023-01-13T06:53:09.747Z,2.50
2023-01-13T06:55:36.717Z,2.53
2023-01-13T06:58:03.687Z,2.55
2023-01-13T07:00:32.345Z,2.40
2023-01-13T07:03:07.157Z,3.10
2023-01-13T07:05:34.087Z,2.22
2023-01-13T07:08:00.996Z,3.00
2023-01-13T07:10:27.855Z,2.85
2023-01-13T07:13:13.233Z,2.33
2023-01-13T07:15:40.156Z,2.22
2023-01-13T07:18:07.026Z,2.60
2023-01-13T07:20:33.972Z,2.33
2023-01-13T07:23:00.887Z,3.33
2023-01-13T07:25:27.822Z,3.03
2023-01-13T07:27:57.229Z,2.90
2023-01-13T07:30:24.080Z,2.38
2023-01-13T07:32:50.890Z,2.80
2023-01-13T07:35:23.018Z,3.13
2023-01-13T07:37:50.105Z,3.08
2023-01-13T07:40:17.275Z,2.83
2023-01-13T07:43:02.695Z,2.80
2023-01-13T07:45:29.631Z,2.35
2023-01-13T07:47:56.554Z,3.38
2023-01-13T07:50:23.845Z,2.60
2023-01-13T07:52:51.078Z,2.90
2023-01-13T07:55:17.999Z,2.70
2023-01-13T07:57:44.916Z,2.75
2023-01-13T08:00:13.046Z,2.75
2023-01-13T08:02:40.152Z,3.38
2023-01-13T08:05:07.870Z,3.28
2023-01-13T08:07:35.039Z,3.03
2023-01-13T08:10:02.855Z,2.70
2023-01-13T08:12:51.953Z,2.55
2023-01-13T08:15:26.078Z,3.10
2023-01-13T08:17:52.945Z,2.92
2023-01-13T08:20:19.868Z,2.97
2023-01-13T08:22:49.237Z,2.90
2023-01-13T08:25:16.186Z,2.60
2023-01-13T08:27:43.068Z,3.17
2023-01-13T08:30:10.480Z,3.03
2023-01-13T08:32:37.357Z,2.60
2023-01-13T08:35:04.337Z,2.85
2023-01-13T08:37:31.199Z,2.90
2023-01-13T08:39:58.032Z,2.30
2023-01-13T08:42:26.795Z,3.33
2023-01-13T08:44:54.169Z,2.42
2023-01-13T08:47:21.263Z,3.10
2023-01-13T08:49:48.086Z,3.53
2023-01-13T08:52:15.036Z,2.83
2023-01-13T08:54:41.853Z,2.63
2023-01-13T08:57:08.860Z,2.90
2023-01-13T08:59:35.906Z,2.60
2023-01-13T09:02:04.249Z,2.88
2023-01-13T09:04:31.429Z,2.78
2023-01-13T09:06:58.507Z,2.90
2023-01-13T09:09:27.648Z,2.55
2023-01-13T09:12:13.074Z,3.38
2023-01-13T09:14:40.476Z,2.90
2023-01-13T09:17:10.046Z,2.58
2023-01-13T09:19:37.163Z,2.58
2023-01-13T09:22:04.179Z,2.50
2023-01-13T09:24:31.322Z,2.80
2023-01-13T09:26:58.288Z,2.90
2023-01-13T09:29:25.188Z,2.85
2023-01-13T09:31:52.120Z,2.60
2023-01-13T09:34:38.489Z,3.10
2023-01-13T09:37:05.936Z,2.78
2023-01-13T09:39:33.561Z,2.60
2023-01-13T09:42:22.813Z,2.65
2023-01-13T09:44:52.138Z,3.40
2023-01-13T09:47:32.122Z,2.42
2023-01-13T09:50:08.580Z,2.75
2023-01-13T09:52:35.941Z,2.63
2023-01-13T09:55:09.875Z,4.03
2023-01-13T09:57:38.065Z,2.55
2023-01-13T10:00:29.477Z,2.40
2023-01-13T10:03:09.636Z,2.38
2023-01-13T10:05:39.585Z,2.25
2023-01-13T10:08:12.214Z,2.25
2023-01-13T10:10:50.187Z,2.00
2023-01-13T10:13:30.654Z,2.30
2023-01-13T10:16:04.173Z,2.65
2023-01-13T10:19:02.139Z,2.28
2023-01-13T10:21:50.441Z,2.00
2023-01-13T10:24:46.173Z,2.15
2023-01-13T10:27:18.957Z,2.40
2023-01-13T10:29:45.789Z,2.30
2023-01-13T10:32:12.666Z,2.58
2023-01-13T10:34:52.029Z,2.15
2023-01-13T10:37:26.426Z,2.22
2023-01-13T10:39:57.499Z,2.40
2023-01-13T10:42:25.442Z,2.13
2023-01-13T10:45:00.028Z,2.60
2023-01-13T10:47:28.759Z,2.58
2023-01-13T10:50:16.145Z,2.30
2023-01-13T10:53:03.561Z,2.20
2023-01-13T10:55:38.965Z,2.20
2023-01-13T10:58:18.698Z,2.85
2023-01-13T11:00:45.675Z,2.20
2023-01-13T11:03:20.051Z,2.47
2023-01-13T11:05:54.270Z,2.42
2023-01-13T11:08:29.328Z,2.13
2023-01-13T11:10:57.654Z,2.53
2023-01-13T11:13:24.564Z,2.55
2023-01-13T11:16:06.585Z,2.63
2023-01-13T11:19:02.593Z,2.17
2023-01-13T11:21:50.976Z,2.08
2023-01-13T11:24:27.677Z,2.47
2023-01-13T11:27:00.761Z,2.50
2023-01-13T11:29:43.774Z,2.20
2023-01-13T11:32:17.699Z,2.50
2023-01-13T11:34:45.870Z,2.50
2023-01-13T11:37:19.673Z,2.80
2023-01-13T11:40:06.617Z,2.67
2023-01-13T11:43:11.851Z,2.35
2023-01-13T11:45:44.454Z,2.42
2023-01-13T11:48:16.220Z,2.40
2023-01-13T11:51:03.172Z,2.83
2023-01-13T11:53:49.012Z,2.60
2023-01-13T11:56:24.640Z,2.55
2023-01-13T11:59:15.818Z,2.28
2023-01-13T12:01:45.391Z,2.40
2023-01-13T12:04:12.211Z,2.42
2023-01-13T12:06:39.361Z,2.30
2023-01-13T12:09:21.351Z,2.67
2023-01-13T12:12:27.367Z,2.20
2023-01-13T12:14:57.528Z,2.25
2023-01-13T12:18:02.361Z,2.35
2023-01-13T12:21:00.069Z,2.38
2023-01-13T12:23:29.971Z,2.17
2023-01-13T12:25:59.962Z,2.47
2023-01-13T12:28:38.570Z,2.25
2023-01-13T12:31:07.499Z,2.10
2023-01-13T12:33:55.613Z,2.70
2023-01-13T12:36:50.307Z,2.28
2023-01-13T12:39:47.969Z,2.40
2023-01-13T12:43:00.279Z,2.35
2023-01-13T12:45:29.096Z,2.00
2023-01-13T12:47:56.475Z,2.35
2023-01-13T12:50:26.056Z,2.42
2023-01-13T12:52:54.650Z,2.60
2023-01-13T12:55:22.288Z,2.88
2023-01-13T12:58:10.159Z,2.45
2023-01-13T13:00:39.840Z,2.40
2023-01-13T13:03:13.760Z,2.10
2023-01-13T13:06:10.568Z,2.35
2023-01-13T13:09:02.469Z,2.45
2023-01-13T13:11:57.079Z,2.45
2023-01-13T13:14:39.536Z,2.28
2023-01-13T13:17:28.461Z,2.35
2023-01-13T13:19:56.460Z,3.08
2023-01-13T13:22:27.536Z,2.55
2023-01-13T13:25:00.278Z,2.50
2023-01-13T13:27:47.555Z,2.53
2023-01-13T13:30:39.553Z,2.60
2023-01-13T13:33:15.821Z,2.10
2023-01-13T13:36:09.994Z,2.28
2023-01-13T13:39:14.341Z,2.40
2023-01-13T13:42:02.092Z,2.53
2023-01-13T13:44:58.898Z,2.88
2023-01-13T13:47:25.791Z,2.33
2023-01-13T13:49:54.443Z,2.58
2023-01-13T13:52:26.221Z,2.45
2023-01-13T13:54:55.539Z,2.22
2023-01-13T13:57:49.927Z,2.33
2023-01-13T14:00:26.907Z,2.30
2023-01-13T14:02:58.779Z,2.33
2023-01-13T14:05:30.632Z,1.90
2023-01-13T14:08:16.871Z,2.50
2023-01-13T14:10:45.090Z,2.15
2023-01-13T14:13:18.045Z,2.40
2023-01-13T14:15:45.005Z,2.33
2023-01-13T14:18:17.577Z,2.13
2023-01-13T14:20:44.688Z,2.05
2023-01-13T14:23:16.460Z,2.08
2023-01-13T14:25:48.043Z,2.10
2023-01-13T14:28:28.226Z,2.40
2023-01-13T14:30:55.563Z,2.72
2023-01-13T14:33:42.169Z,2.15
2023-01-13T14:36:16.491Z,2.10
2023-01-13T14:38:45.485Z,2.30
2023-01-13T14:41:23.841Z,2.50
2023-01-13T14:43:51.848Z,2.50
2023-01-13T14:46:21.011Z,2.22
2023-01-13T14:48:48.061Z,2.50
2023-01-13T14:51:22.573Z,2.30
2023-01-13T14:53:49.604Z,2.45
2023-01-13T14:56:47.171Z,2.20
2023-01-13T14:59:35.733Z,2.40
2023-01-13T15:02:23.386Z,2.08
2023-01-13T15:04:53.957Z,1.70
2023-01-13T15:07:26.432Z,2.22
2023-01-13T15:10:01.290Z,2.22
2023-01-13T15:12:37.833Z,1.90
2023-01-13T15:15:21.209Z,2.08
2023-01-13T15:20:16.052Z,1.90
2023-01-13T15:22:43.043Z,2.30
2023-01-13T15:25:10.380Z,2.20
2023-01-13T15:27:37.679Z,2.15
2023-01-13T15:30:17.022Z,2.15
2023-01-13T15:32:44.043Z,2.22
2023-01-13T15:35:15.993Z,2.17
2023-01-13T15:37:43.434Z,2.05
2023-01-13T15:40:21.411Z,2.10
2023-01-13T15:43:07.348Z,2.55
2023-01-13T15:45:53.333Z,2.53
2023-01-13T15:48:24.084Z,2.42
2023-01-13T15:50:50.991Z,3.08
2023-01-13T15:53:18.188Z,2.25
2023-01-13T15:55:46.800Z,2.30
2023-01-13T15:58:13.937Z,2.08
2023-01-13T16:00:41.971Z,2.35
2023-01-13T16:03:18.109Z,2.40
2023-01-13T16:05:45.142Z,2.20
2023-01-13T16:08:19.405Z,2.85
2023-01-13T16:10:46.338Z,2.67
2023-01-13T16:13:15.988Z,2.53
2023-01-13T16:15:44.466Z,2.75
2023-01-13T16:18:24.186Z,2.47
2023-01-13T16:20:53.491Z,2.50
2023-01-13T16:23:20.450Z,2.35
2023-01-13T16:25:47.654Z,2.50
2023-01-13T16:28:22.323Z,2.63
2023-01-13T16:30:49.441Z,2.63
2023-01-13T16:33:16.373Z,2.47
2023-01-13T16:36:09.429Z,2.05
2023-01-13T16:38:30.581Z,2.75
2023-01-13T16:40:57.626Z,2.92
2023-01-13T16:43:24.526Z,2.78
2023-01-13T16:45:51.428Z,2.42
2023-01-13T16:48:19.647Z,2.70
2023-01-13T16:50:46.580Z,3.08
2023-01-13T16:53:13.459Z,2.75
2023-01-13T16:55:40.763Z,3.42
2023-01-13T16:58:12.001Z,3.08
2023-01-13T17:00:38.962Z,3.00
2023-01-13T17:03:05.837Z,2.97
2023-01-13T17:05:32.947Z,2.60
2023-01-13T17:07:59.824Z,3.22
2023-01-13T17:10:26.863Z,3.33
2023-01-13T17:12:53.726Z,3.17
2023-01-13T17:15:20.648Z,3.35
2023-01-13T17:17:51.813Z,3.58
2023-01-13T17:20:18.793Z,3.83
2023-01-13T17:22:49.745Z,3.50
2023-01-13T17:25:21.719Z,3.05
2023-01-13T17:27:48.563Z,3.55
2023-01-13T17:30:15.922Z,3.45
2023-01-13T17:32:42.795Z,3.22
2023-01-13T17:35:10.164Z,3.50
2023-01-13T17:37:37.231Z,3.53
2023-01-13T17:40:04.482Z,3.70
2023-01-13T17:42:32.029Z,3.65
2023-01-13T17:44:59.186Z,2.80
2023-01-13T17:47:26.139Z,3.00
2023-01-13T17:49:53.059Z,2.72
2023-01-13T17:52:20.302Z,2.97
2023-01-13T17:54:47.146Z,3.58
2023-01-13T17:57:14.018Z,3.40
2023-01-13T17:59:41.764Z,3.60
2023-01-13T18:02:11.567Z,4.20
2023-01-13T18:04:38.613Z,3.33
2023-01-13T18:07:06.274Z,3.20
2023-01-13T18:09:33.398Z,2.85
2023-01-13T18:12:00.479Z,3.20
2023-01-13T18:14:28.162Z,3.17
2023-01-13T18:16:55.451Z,2.95
2023-01-13T18:19:40.881Z,3.60
2023-01-13T18:22:30.168Z,4.78
2023-01-13T18:25:15.422Z,4.47
2023-01-13T18:27:42.567Z,4.30
2023-01-13T18:30:09.923Z,3.40
2023-01-13T18:32:37.293Z,3.30
2023-01-13T18:35:07.224Z,3.25
2023-01-13T18:37:38.888Z,3.53
2023-01-13T18:40:06.630Z,3.88
2023-01-13T18:42:52.343Z,3.90
2023-01-13T18:45:29.755Z,3.80
2023-01-13T18:47:58.677Z,3.95
2023-01-13T18:50:25.788Z,3.42
2023-01-13T18:52:52.676Z,3.25
2023-01-13T18:55:19.701Z,3.10
2023-01-13T18:57:46.739Z,3.28
2023-01-13T19:00:16.114Z,3.28
2023-01-13T19:02:43.685Z,3.97
2023-01-13T19:05:10.767Z,4.60
2023-01-13T19:07:37.704Z,3.38
2023-01-13T19:10:05.527Z,3.38
2023-01-13T19:12:33.702Z,3.85
2023-01-13T19:15:01.215Z,3.00
2023-01-13T19:17:31.728Z,2.97
2023-01-13T19:19:59.424Z,3.50
2023-01-13T19:22:31.609Z,3.63
2023-01-13T19:24:58.893Z,5.47
2023-01-13T19:27:27.444Z,6.03
2023-01-13T19:29:57.439Z,7.10
2023-01-13T19:32:24.499Z,6.15
2023-01-13T19:34:51.628Z,5.05
2023-01-13T19:37:19.428Z,4.82
2023-01-13T19:39:46.520Z,4.30
2023-01-13T19:42:32.101Z,4.75
2023-01-13T19:45:17.457Z,4.03
2023-01-13T19:47:45.826Z,3.63
2023-01-13T19:50:13.654Z,3.63
2023-01-13T19:52:41.834Z,4.07
2023-01-13T19:55:09.798Z,3.50
2023-01-13T19:57:38.246Z,3.38
2023-01-13T20:00:07.086Z,3.83
2023-01-13T20:02:44.846Z,3.63
2023-01-13T20:07:39.796Z,3.53
2023-01-13T20:10:07.303Z,2.70
2023-01-13T20:12:34.246Z,3.33
2023-01-13T20:15:01.111Z,2.70
2023-01-13T20:17:28.737Z,3.22
2023-01-13T20:19:56.627Z,3.33
2023-01-13T20:22:23.624Z,2.97
2023-01-13T20:24:55.028Z,3.10
2023-01-13T20:27:23.788Z,3.53
2023-01-13T20:29:51.024Z,3.30
2023-01-13T20:32:17.924Z,3.80
2023-01-13T20:34:44.844Z,3.45
2023-01-13T20:37:11.768Z,3.42
2023-01-13T20:39:40.983Z,3.50
2023-01-13T20:42:27.381Z,3.30
2023-01-13T20:44:54.293Z,3.58
2023-01-13T20:47:21.219Z,3.92
2023-01-13T20:49:48.121Z,3.83
2023-01-13T20:52:14.963Z,3.80
2023-01-13T20:54:42.046Z,2.95
2023-01-13T20:57:10.004Z,3.78
2023-01-13T20:59:37.652Z,3.90
2023-01-13T21:02:05.558Z,3.50
2023-01-13T21:04:32.420Z,3.45
2023-01-13T21:06:59.278Z,4.47
2023-01-13T21:09:27.272Z,3.90
2023-01-13T21:12:12.721Z,3.60
2023-01-13T21:14:58.036Z,3.22
2023-01-13T21:17:43.517Z,3.38
2023-01-13T21:20:11.589Z,3.67
2023-01-13T21:22:41.590Z,4.10
2023-01-13T21:25:08.950Z,3.28
2023-01-13T21:27:35.799Z,3.65
2023-01-13T21:30:02.716Z,3.30
2023-01-13T21:32:29.704Z,3.97
2023-01-13T21:34:58.821Z,3.83
2023-01-13T21:37:25.689Z,4.22
2023-01-13T21:39:52.877Z,4.00
2023-01-13T21:42:38.330Z,3.92
2023-01-13T21:45:24.069Z,4.03
2023-01-13T21:47:52.008Z,4.07
2023-01-13T21:50:23.788Z,4.45
2023-01-13T21:52:52.341Z,3.78
2023-01-13T21:55:20.488Z,4.22
2023-01-13T21:57:47.988Z,3.45
2023-01-13T22:00:15.841Z,4.07
2023-01-13T22:02:45.404Z,4.13
2023-01-13T22:05:13.108Z,4.00
2023-01-13T22:07:40.603Z,3.67
2023-01-13T22:10:09.591Z,3.80
2023-01-13T22:12:37.141Z,3.45
2023-01-13T22:15:04.562Z,3.70
2023-01-13T22:17:34.352Z,3.95
2023-01-13T22:20:01.448Z,4.18
2023-01-13T22:22:29.080Z,4.30
2023-01-13T22:24:56.020Z,3.85
2023-01-13T22:27:24.544Z,3.70
2023-01-13T22:29:52.374Z,4.82
2023-01-13T22:32:19.876Z,3.92
2023-01-13T22:34:48.050Z,3.83
2023-01-13T22:37:15.207Z,4.63
2023-01-13T22:39:42.161Z,4.40
2023-01-13T22:42:10.197Z,4.45
2023-01-13T22:44:37.126Z,3.45
2023-01-13T22:47:04.044Z,3.50
2023-01-13T22:49:30.894Z,3.60
2023-01-13T22:51:57.727Z,3.75
2023-01-13T22:54:24.616Z,4.07
2023-01-13T22:56:51.469Z,4.20
2023-01-13T22:59:18.429Z,3.88
2023-01-13T23:01:45.290Z,3.90
2023-01-13T23:04:15.118Z,4.15
2023-01-13T23:06:42.134Z,3.88
2023-01-13T23:09:10.042Z,3.70
2023-01-13T23:11:36.896Z,3.83
2023-01-13T23:14:05.683Z,3.67
2023-01-13T23:16:34.491Z,3.78
2023-01-13T23:19:01.394Z,3.75
2023-01-13T23:21:30.072Z,3.95
2023-01-13T23:23:58.640Z,3.40
2023-01-13T23:26:26.110Z,3.17
2023-01-13T23:28:53.048Z,3.60
2023-01-13T23:31:21.389Z,4.85
2023-01-13T23:33:48.506Z,4.53
2023-01-13T23:36:17.789Z,3.45
2023-01-13T23:38:44.958Z,3.25
2023-01-13T23:41:16.295Z,3.60
2023-01-13T23:43:43.167Z,4.80
2023-01-13T23:46:11.949Z,3.40
2023-01-13T23:48:41.952Z,3.20
2023-01-13T23:51:11.295Z,4.03
2023-01-13T23:53:40.617Z,3.45
2023-01-13T23:56:08.827Z,4.32
2023-01-13T23:58:35.660Z,3.65
